Weather observations for the past three days for
Custer, Custer County Airport
Metric (Imperial)
Date Time (mdt) Wind (kph) Vis. (km) Weather Sky Cond. Temperature (ºC) Relative Humidity Wind Chill (°C) Heat Index (°C) Pressure Precipitation (cm)
Air Dwpt 6 hour altimeter (cm) sea level (mb) 1 hr 3 hr 6 hr
Max. Min.
01 20:53 NE 9 16.09 Partly Cloudy SCT100 15.6 12.8 84% 76.35 1013.1
01 19:53 NE 15 16.09 A Few Clouds FEW110 16.1 12.8 81% 76.33 1012.0
01 18:53 NE 17 16.09 A Few Clouds FEW095 17.8 12.8 73% 76.33 1012.1
01 17:53 E 13 16.09 Mostly Cloudy SCT060 BKN080 BKN100 18.9 12.2 21.7 16.7 65% 76.33 1011.8
01 16:53 E 15 16.09 Mostly Cloudy FEW055 SCT075 BKN100 20.6 11.7 57% 76.33 1011.4
01 15:53 E 17 16.09 Overcast FEW041 BKN050 OVC090 20 11.7 59% 76.38 1012.1
01 14:53 Vrbl 9 16.09 Partly Cloudy FEW050 SCT070 20.6 11.1 55% 76.4 1012.4
01 13:53 Vrbl 7 16.09 Overcast SCT038 BKN045 OVC060 20.6 11.7 57% 76.43 1013.1
01 12:53 E 6 16.09 Mostly Cloudy BKN041 BKN100 19.4 11.7 61% 76.45 1013.4
01 11:53 Calm 16.09 Overcast OVC055 16.7 12.8 17.2 13.3 78% 76.53 1014.8 0.2
01 10:53 N 6 16.09 Overcast OVC060 16.1 13.3 84% 76.53 1014.8
01 09:53 N 9 16.09 Overcast OVC070 14.4 13.3 93% 76.53 1015.1 0.1
01 08:53 NW 6 16.09 Light Rain FEW050 BKN070 OVC090 13.3 12.2 93% 76.58 1015.7 0.1 0.1
01 07:53 Calm 16.09 Light Rain FEW065 BKN080 OVC100 16.1 12.2 78% 76.58 1015.2
01 06:53 N 6 16.09 Overcast OVC110 13.9 6.7 62% 76.56 1014.6
01 05:53 Calm 16.09 Fair CLR 14.4 5 15.6 11.7 53% 76.56 1014.1
01 04:53 NE 9 16.09 Fair CLR 15 3.9 48% 76.53 1013.4
01 03:53 NE 7 16.09 Fair CLR 13.9 2.2 45% 76.56 1013.8
01 02:53 NE 7 16.09 Fair CLR 13.9 1.7 44% 76.58 1014.6
01 01:53 N 7 16.09 Fair CLR 13.3 1.7 46% 76.61 1014.9
01 00:53 NE 13 16.09 Fair CLR 15 2.8 44% 76.66 1015.3
31 23:53 NE 6 16.09 Fair CLR 15 2.8 22.8 13.3 44% 76.68 1015.8
31 22:53 NE 9 16.09 Fair CLR 15 3.3 46% 76.68 1015.9
31 21:53 NE 7 16.09 Fair CLR 16.7 3.3 41% 76.68 1015.9
31 20:53 NE 9 16.09 Fair CLR 17.2 3.9 41% 76.63 1015.9
31 19:53 E 11 16.09 Fair CLR 18.3 4.4 40% 76.58 1015.5
31 18:53 E 11 16.09 Fair CLR 21.7 3.9 31% 76.56 1015.5
31 17:53 E 15 16.09 Fair CLR 22.8 4.4 26.1 22.8 30% 76.53 1015.2
31 16:53 W 13 16.09 Fair CLR 25 -1.1 18% 25 76.53 1014.4
31 15:53 W 17 16.09 Fair CLR 25.6 -2.2 16% 25 76.53 1014.4
31 14:53 SW 9 16.09 Fair CLR 23.9 -1.7 18% 24 76.56 1014.5
31 13:53 Calm 16.09 Fair CLR 24.4 -0.6 19% 25 76.56 1014.4
31 12:53 W 15 16.09 Fair CLR 23.3 -0.6 20% 76.56 1014.6
31 11:53 SW 13 G 26 16.09 Fair CLR 22.8 1.1 22.8 6.7 24% 76.58 1014.5
31 10:53 Vrbl 7 16.09 Fair CLR 21.1 5 35% 76.58 1014.6
31 09:53 W 13 16.09 Fair CLR 19.4 6.1 42% 76.56 1014.2
31 08:53 SW 11 16.09 Fair CLR 16.7 4.4 44% 76.53 1014.3
31 07:53 Vrbl 7 16.09 Fair CLR 13.9 2.8 47% 76.56 1014.9
31 06:53 NW 6 16.09 Fair CLR 7.8 3.9 77% 76.5 1014.9
31 05:53 NW 6 16.09 Fair CLR 7.2 4.4 13.9 7.2 83% 76.45 1014.4
31 04:53 Calm 16.09 Fair CLR 8.3 5.6 83% 76.43 1013.2
31 03:53 N 7 16.09 Fair CLR 7.8 5.6 86% 7 76.43 1013.2
31 02:53 Calm 16.09 Fair CLR 10 6.1 77% 76.4 1012.7
31 01:53 Calm 16.09 Fair CLR 11.1 6.1 72% 76.43 1012.9
31 00:53 Calm 16.09 Fair CLR 11.7 6.7 72% 76.43 1012.7
30 23:53 Calm 16.09 Fair CLR 13.3 6.1 23.3 13.3 62% 76.43 1012.7
30 22:53 Calm 16.09 Fair CLR 15.6 5 50% 76.4 1011.7
30 21:53 Calm 16.09 Fair CLR 16.7 5 46% 76.38 1011.8
30 20:53 SW 6 16.09 Fair CLR 17.8 5 43% 76.35 1011.4
30 19:53 Calm 16.09 Fair CLR 19.4 5 39% 76.28 1010.6
30 18:53 W 13 16.09 Fair CLR 21.7 5.6 35% 76.23 1009.5
30 17:53 W 19 G 50 16.09 Fair CLR 22.8 5 25.6 22.8 32% 76.2 1009.0
30 16:53 SW 17 G 46 16.09 A Few Clouds FEW090 25 5 28% 25 76.12 1007.8
30 15:53 W 20 G 39 16.09 Fair CLR 25.6 5 27% 26 76.15 1007.6
30 14:53 W 20 G 35 16.09 Fair CLR 24.4 6.7 32% 25 76.17 1008.3
30 13:53 W 20 G 41 16.09 Fair CLR 24.4 7.8 35% 25 76.17 1008.3
30 12:53 W 15 G 39 16.09 Fair CLR 25 8.3 35% 26 76.2 1008.3
30 11:53 SW 13 16.09 Fair CLR 23.3 8.3 23.9 15 38% 76.2 1008.3
30 10:53 W 11 16.09 Fair CLR 22.8 10 44% 76.2 1008.6
30 09:53 W 13 16.09 Fair CLR 20 9.4 51% 76.2 1008.7
30 08:53 W 15 16.09 Fair CLR 18.3 10 59% 76.17 1008.6
30 07:53 W 11 16.09 Fair CLR 16.1 9.4 65% 76.2 1008.9
30 06:53 W 11 16.09 Fair CLR 15.6 8.9 65% 76.17 1008.5
30 05:53 W 9 16.09 Fair CLR 15 8.9 18.3 15 67% 76.17 1008.4
30 04:53 SW 11 16.09 Fair CLR 15 8.9 67% 76.15 1007.9
30 03:53 NW 13 16.09 Fair CLR 16.1 8.9 63% 76.15 1007.7
30 02:53 W 9 16.09 Fair CLR 16.1 8.9 63% 76.17 1007.9
30 01:53 W 17 16.09 Fair CLR 16.1 8.3 60% 76.15 1007.6
30 00:53 W 20 G 33 16.09 Fair CLR 17.2 8.3 56% 76.12 1007.5
29 23:53 W 24 G 39 16.09 Fair CLR 18.3 7.8 25.6 18.3 51% 76.17 1007.9
29 22:53 SW 13 16.09 Fair CLR 19.4 6.7 44% 76.17 1007.9
29 21:53 W 17 G 39 16.09 Fair CLR 20.6 6.1 39% 76.17 1008.1
Date Time (mdt) Wind (kph) Vis. (km) Weather Sky Cond. Air Dwpt Max. Min. Relative Humidity Wind Chill (°C) Heat Index (°C) altimeter (cm) sea level (mb) 1 hr 3 hr 6 hr
6 hour
Temperature (ºC) Pressure Precipitation (cm)